createdAt,value
2022-11-14T00:03:00.612Z,21.80
2022-11-14T00:05:46.482Z,21.30
2022-11-14T00:08:32.251Z,19.80
2022-11-14T00:11:18.456Z,21.10
2022-11-14T00:14:03.535Z,22.40
2022-11-14T00:16:49.287Z,21.50
2022-11-14T00:19:34.408Z,21.40
2022-11-14T00:22:19.929Z,17.80
2022-11-14T00:25:05.443Z,20.80
2022-11-14T00:27:50.875Z,19.00
2022-11-14T00:30:36.368Z,20.10
2022-11-14T00:33:21.767Z,19.50
2022-11-14T00:36:07.624Z,26.10
2022-11-14T00:38:54.450Z,21.00
2022-11-14T00:41:40.404Z,20.40
2022-11-14T00:44:25.902Z,19.30
2022-11-14T00:47:11.067Z,19.40
2022-11-14T00:49:56.553Z,19.10
2022-11-14T00:52:41.835Z,22.40
2022-11-14T00:55:27.163Z,17.70
2022-11-14T00:58:12.738Z,21.50
2022-11-14T01:00:58.219Z,15.80
2022-11-14T01:03:47.481Z,18.00
2022-11-14T01:06:32.882Z,20.10
2022-11-14T01:09:17.860Z,18.50
2022-11-14T01:12:03.609Z,19.00
2022-11-14T01:14:49.197Z,17.40
2022-11-14T01:17:35.071Z,16.90
2022-11-14T01:20:20.031Z,16.20
2022-11-14T01:23:05.195Z,17.30
2022-11-14T01:25:50.654Z,19.10
2022-11-14T01:28:36.262Z,18.60
2022-11-14T01:31:24.347Z,15.90
2022-11-14T01:34:09.883Z,13.60
2022-11-14T01:36:55.097Z,14.80
2022-11-14T01:39:40.449Z,17.10
2022-11-14T01:42:27.441Z,14.30
2022-11-14T01:45:51.308Z,12.80
2022-11-14T01:48:45.000Z,15.50
2022-11-14T01:51:38.686Z,12.30
2022-11-14T01:54:29.167Z,12.70
2022-11-14T01:57:19.123Z,12.00
2022-11-14T02:00:07.872Z,11.50
2022-11-14T02:02:54.095Z,13.00
2022-11-14T02:05:40.976Z,12.20
2022-11-14T02:08:26.494Z,12.40
2022-11-14T02:11:12.497Z,9.70
2022-11-14T02:14:00.050Z,10.40
2022-11-14T02:17:00.808Z,9.70
2022-11-14T02:19:53.631Z,10.90
2022-11-14T02:22:40.547Z,9.80
2022-11-14T02:25:26.600Z,12.70
2022-11-14T02:28:11.708Z,9.80
2022-11-14T02:30:57.502Z,11.70
2022-11-14T02:33:42.954Z,9.90
2022-11-14T02:36:28.612Z,9.90
2022-11-14T02:39:13.847Z,11.00
2022-11-14T02:41:59.784Z,9.40
2022-11-14T02:44:45.015Z,10.50
2022-11-14T02:47:30.647Z,10.00
2022-11-14T02:50:16.579Z,9.40
2022-11-14T02:53:02.111Z,10.10
2022-11-14T02:55:47.093Z,8.80
2022-11-14T02:58:32.893Z,10.00
2022-11-14T03:01:21.442Z,11.40
2022-11-14T03:04:07.972Z,10.20
2022-11-14T03:06:53.863Z,9.10
2022-11-14T03:09:39.602Z,8.40
2022-11-14T03:12:24.899Z,8.30
2022-11-14T03:15:10.675Z,7.20
2022-11-14T03:17:55.729Z,8.10
2022-11-14T03:20:41.189Z,8.20
2022-11-14T03:23:26.192Z,9.10
2022-11-14T03:26:13.042Z,8.40
2022-11-14T03:28:58.468Z,8.40
2022-11-14T03:31:43.675Z,8.50
2022-11-14T03:34:29.279Z,8.90
2022-11-14T03:37:14.985Z,8.20
2022-11-14T03:40:00.068Z,7.40
2022-11-14T03:42:45.845Z,8.40
2022-11-14T03:45:31.121Z,9.50
2022-11-14T03:48:16.429Z,9.30
2022-11-14T03:51:01.856Z,8.20
2022-11-14T03:53:47.306Z,7.80
2022-11-14T03:56:32.356Z,8.10
2022-11-14T03:59:17.539Z,7.00
2022-11-14T04:02:02.876Z,8.50
2022-11-14T04:04:48.181Z,8.50
2022-11-14T04:07:33.844Z,8.30
2022-11-14T04:10:19.922Z,8.20
2022-11-14T04:13:05.109Z,8.50
2022-11-14T04:15:55.631Z,9.10
2022-11-14T04:18:40.786Z,9.50
2022-11-14T04:21:26.226Z,8.80
2022-11-14T04:24:11.493Z,8.80
2022-11-14T04:26:56.879Z,9.50
2022-11-14T04:29:42.266Z,9.70
2022-11-14T04:32:28.003Z,9.30
2022-11-14T04:35:13.234Z,8.90
2022-11-14T04:37:58.794Z,9.10
2022-11-14T04:40:53.600Z,7.80
2022-11-14T04:43:39.046Z,8.00
2022-11-14T04:46:23.971Z,8.40
2022-11-14T04:49:09.572Z,7.50
2022-11-14T04:51:55.029Z,8.10
2022-11-14T04:54:40.371Z,7.60
2022-11-14T04:57:26.179Z,8.00
2022-11-14T05:00:12.692Z,7.90
2022-11-14T05:02:59.396Z,9.10
2022-11-14T05:05:44.761Z,9.30
2022-11-14T05:08:30.348Z,9.80
2022-11-14T05:11:17.613Z,7.80
2022-11-14T05:14:03.016Z,8.20
2022-11-14T05:16:48.442Z,7.70
2022-11-14T05:19:33.388Z,7.00
2022-11-14T05:22:18.786Z,7.50
2022-11-14T05:25:05.335Z,7.40
2022-11-14T05:27:50.905Z,7.70
2022-11-14T05:30:36.124Z,9.70
2022-11-14T05:33:21.592Z,6.70
2022-11-14T05:36:12.832Z,7.50
2022-11-14T05:38:58.253Z,8.80
2022-11-14T05:41:43.261Z,6.60
2022-11-14T05:44:29.074Z,7.50
2022-11-14T05:47:15.700Z,7.40
2022-11-14T05:50:01.508Z,9.00
2022-11-14T05:52:46.657Z,9.10
2022-11-14T05:55:32.073Z,8.50
2022-11-14T05:58:17.758Z,7.90
2022-11-14T06:01:04.732Z,11.30
2022-11-14T06:03:50.288Z,6.80
2022-11-14T06:06:35.758Z,6.40
2022-11-14T06:09:21.280Z,7.30
2022-11-14T06:12:07.438Z,8.20
2022-11-14T06:14:52.805Z,6.70
2022-11-14T06:17:38.643Z,8.40
2022-11-14T06:20:23.826Z,8.30
2022-11-14T06:23:09.283Z,7.80
2022-11-14T06:26:02.446Z,6.80
2022-11-14T06:28:49.632Z,7.40
2022-11-14T06:31:35.042Z,7.90
2022-11-14T06:34:20.292Z,8.40
2022-11-14T06:37:05.389Z,7.30
2022-11-14T06:39:50.609Z,6.90
2022-11-14T06:42:35.886Z,7.00
2022-11-14T06:45:21.156Z,6.40
2022-11-14T06:48:06.634Z,8.60
2022-11-14T06:50:56.597Z,7.60
2022-11-14T06:53:43.215Z,7.00
2022-11-14T06:56:28.580Z,6.00
2022-11-14T06:59:14.562Z,8.60
2022-11-14T07:02:00.129Z,9.30
2022-11-14T07:04:45.724Z,7.80
2022-11-14T07:07:31.192Z,7.00
2022-11-14T07:10:16.929Z,5.90
2022-11-14T07:13:02.022Z,5.90
2022-11-14T07:15:51.824Z,7.50
2022-11-14T07:18:37.494Z,6.90
2022-11-14T07:21:23.368Z,8.80
2022-11-14T07:24:08.793Z,6.10
2022-11-14T07:26:54.386Z,5.90
2022-11-14T07:29:39.635Z,7.20
2022-11-14T07:32:24.839Z,7.20
2022-11-14T07:35:10.222Z,7.60
2022-11-14T07:38:01.806Z,6.00
2022-11-14T07:41:00.065Z,5.70
2022-11-14T07:43:45.675Z,6.00
2022-11-14T07:46:31.255Z,6.10
2022-11-14T07:49:16.435Z,6.50
2022-11-14T07:52:01.782Z,6.00
2022-11-14T07:54:47.022Z,7.70
2022-11-14T07:57:35.569Z,8.30
2022-11-14T08:00:24.963Z,11.90
2022-11-14T08:03:10.763Z,13.40
2022-11-14T08:06:07.907Z,9.50
2022-11-14T08:08:53.595Z,8.90
2022-11-14T08:11:47.779Z,10.10
2022-11-14T08:14:34.115Z,9.40
2022-11-14T08:17:20.844Z,12.00
2022-11-14T08:20:08.216Z,11.20
2022-11-14T08:22:54.553Z,8.90
2022-11-14T08:25:40.440Z,10.30
2022-11-14T08:28:26.051Z,12.30
2022-11-14T08:31:13.116Z,10.50
2022-11-14T08:33:58.427Z,9.70
2022-11-14T08:36:44.178Z,8.90
2022-11-14T08:39:29.442Z,7.00
2022-11-14T08:42:15.006Z,6.50
2022-11-14T08:45:00.363Z,7.90
2022-11-14T08:47:52.881Z,6.70
2022-11-14T08:50:38.402Z,14.00
2022-11-14T08:53:24.120Z,9.50
2022-11-14T08:56:10.531Z,15.40
2022-11-14T08:58:55.561Z,15.60
2022-11-14T09:01:41.440Z,17.10
2022-11-14T09:04:27.130Z,12.60
2022-11-14T09:07:13.005Z,8.70
2022-11-14T09:09:58.514Z,7.40
2022-11-14T09:12:43.572Z,9.60
2022-11-14T09:15:29.251Z,7.00
2022-11-14T09:18:14.785Z,8.30
2022-11-14T09:21:04.643Z,9.60
2022-11-14T09:23:50.395Z,6.30
2022-11-14T09:26:36.141Z,6.80
2022-11-14T09:29:21.392Z,7.30
2022-11-14T09:32:07.135Z,7.20
2022-11-14T09:34:52.626Z,6.10
2022-11-14T09:37:38.678Z,8.10
2022-11-14T09:40:24.198Z,8.20
2022-11-14T09:43:09.500Z,6.30
2022-11-14T09:45:55.436Z,7.90
2022-11-14T09:48:40.631Z,9.00
2022-11-14T09:51:36.374Z,6.70
2022-11-14T09:54:28.162Z,10.50
2022-11-14T09:57:16.269Z,9.60
2022-11-14T10:00:01.733Z,8.30
2022-11-14T10:02:59.702Z,8.80
2022-11-14T10:06:10.347Z,8.50
2022-11-14T10:09:27.397Z,9.80
2022-11-14T10:12:26.346Z,11.30
2022-11-14T10:15:33.990Z,8.80
2022-11-14T10:18:36.335Z,9.40
2022-11-14T10:21:37.556Z,9.50
2022-11-14T10:25:24.196Z,10.20
2022-11-14T10:28:56.417Z,10.90
2022-11-14T10:31:55.255Z,12.90
2022-11-14T10:34:55.881Z,11.90
2022-11-14T10:38:00.265Z,10.30
2022-11-14T10:40:49.397Z,9.80
2022-11-14T10:43:42.946Z,10.80
2022-11-14T10:46:37.399Z,8.60
2022-11-14T10:49:24.736Z,8.00
2022-11-14T10:52:16.110Z,8.00
2022-11-14T10:55:12.659Z,9.00
2022-11-14T10:57:58.061Z,9.20
2022-11-14T11:00:43.711Z,12.40
2022-11-14T11:03:43.627Z,12.20
2022-11-14T11:06:29.307Z,11.40
2022-11-14T11:09:44.816Z,10.90
2022-11-14T11:12:34.337Z,10.20
2022-11-14T11:15:25.961Z,11.40
2022-11-14T11:18:31.526Z,13.10
2022-11-14T11:21:19.936Z,14.30
2022-11-14T11:24:05.518Z,14.20
2022-11-14T11:27:20.117Z,13.70
2022-11-14T11:30:19.667Z,13.70
2022-11-14T11:33:24.986Z,14.10
2022-11-14T11:36:16.657Z,13.80
2022-11-14T11:39:01.947Z,13.80
2022-11-14T11:44:59.541Z,13.50
2022-11-14T11:47:56.018Z,11.90
2022-11-14T11:50:42.030Z,12.10
2022-11-14T11:53:34.103Z,12.40
2022-11-14T11:56:25.293Z,12.70
2022-11-14T11:59:34.009Z,14.40
2022-11-14T12:02:25.697Z,12.50
2022-11-14T12:05:57.854Z,16.10
2022-11-14T12:09:12.771Z,15.10
2022-11-14T12:12:04.856Z,13.50
2022-11-14T12:15:02.809Z,13.20
2022-11-14T12:18:05.859Z,13.90
2022-11-14T12:21:12.022Z,17.60
2022-11-14T12:24:25.544Z,18.30
2022-11-14T12:27:20.146Z,14.60
2022-11-14T12:30:22.759Z,16.20
2022-11-14T12:33:31.557Z,17.10
2022-11-14T12:36:17.751Z,16.40
2022-11-14T12:39:03.718Z,18.60
2022-11-14T12:41:49.190Z,15.70
2022-11-14T12:44:37.555Z,19.40
2022-11-14T12:47:25.415Z,17.20
2022-11-14T12:50:40.169Z,19.60
2022-11-14T12:53:37.616Z,23.30
2022-11-14T12:56:28.909Z,23.70
2022-11-14T12:59:30.259Z,21.80
2022-11-14T13:02:45.367Z,19.60
2022-11-14T13:05:36.898Z,18.80
2022-11-14T13:09:05.748Z,21.80
2022-11-14T13:12:10.549Z,24.20
2022-11-14T13:15:15.719Z,21.30
2022-11-14T13:18:32.563Z,18.70
2022-11-14T13:21:45.589Z,21.50
2022-11-14T13:25:03.513Z,21.30
2022-11-14T13:31:18.310Z,19.70
2022-11-14T13:34:19.274Z,21.20
2022-11-14T13:37:16.881Z,24.30
2022-11-14T13:40:16.083Z,21.60
2022-11-14T13:43:16.873Z,20.90
2022-11-14T13:46:30.194Z,26.70
2022-11-14T13:49:30.648Z,24.10
2022-11-14T13:52:16.376Z,21.40
2022-11-14T13:55:02.577Z,20.90
2022-11-14T13:58:16.479Z,23.30
2022-11-14T14:01:41.104Z,20.50
2022-11-14T14:04:51.677Z,23.00
2022-11-14T14:08:02.404Z,21.20
2022-11-14T14:11:21.677Z,23.10
2022-11-14T14:14:44.600Z,22.70
2022-11-14T14:17:58.368Z,22.10
2022-11-14T14:21:15.961Z,24.60
2022-11-14T14:24:15.706Z,25.00
2022-11-14T14:27:23.468Z,24.70
2022-11-14T14:30:15.420Z,24.40
2022-11-14T14:33:19.007Z,22.60
2022-11-14T14:36:04.799Z,22.70
2022-11-14T14:38:50.249Z,23.60
2022-11-14T14:41:36.989Z,26.50
2022-11-14T14:44:38.313Z,23.50
2022-11-14T14:47:41.548Z,21.40
2022-11-14T14:50:33.235Z,20.90
2022-11-14T14:53:27.020Z,24.20
2022-11-14T14:56:26.670Z,24.60
2022-11-14T14:59:17.227Z,24.60
2022-11-14T15:02:03.127Z,23.40
2022-11-14T15:04:49.185Z,22.60
2022-11-14T15:07:39.114Z,24.50
2022-11-14T15:10:31.819Z,20.90
2022-11-14T15:13:17.829Z,22.90
2022-11-14T15:16:05.396Z,22.70
2022-11-14T15:18:53.541Z,24.40
2022-11-14T15:21:39.821Z,22.30
2022-11-14T15:24:25.124Z,24.50
2022-11-14T15:27:13.105Z,22.70
2022-11-14T15:30:01.541Z,24.70
2022-11-14T15:32:56.405Z,21.70
2022-11-14T15:35:41.925Z,23.30
2022-11-14T15:38:44.264Z,23.70
2022-11-14T15:41:32.243Z,22.20
2022-11-14T15:44:31.512Z,24.90
2022-11-14T15:47:36.811Z,25.20
2022-11-14T15:50:33.276Z,23.80
2022-11-14T15:53:27.890Z,26.90
2022-11-14T15:56:15.059Z,28.30
2022-11-14T15:59:00.901Z,25.10
2022-11-14T16:02:01.725Z,23.70
2022-11-14T16:04:48.157Z,24.80
2022-11-14T16:07:34.638Z,29.20
2022-11-14T16:10:23.337Z,25.30
2022-11-14T16:13:10.581Z,26.00
2022-11-14T16:15:56.169Z,23.80
2022-11-14T16:18:41.734Z,24.40
2022-11-14T16:21:27.509Z,25.50
2022-11-14T16:24:19.139Z,24.30
2022-11-14T16:27:04.977Z,25.60
2022-11-14T16:30:00.883Z,29.70
2022-11-14T16:32:48.490Z,26.70
2022-11-14T16:35:34.264Z,23.40
2022-11-14T16:38:20.437Z,25.50
2022-11-14T16:41:12.713Z,24.60
2022-11-14T16:43:58.532Z,25.90
2022-11-14T16:46:45.318Z,26.00
2022-11-14T16:49:30.769Z,23.90
2022-11-14T16:52:16.761Z,27.70
2022-11-14T16:55:02.641Z,24.10
2022-11-14T16:57:48.790Z,23.60
2022-11-14T17:00:35.428Z,20.80
2022-11-14T17:03:21.754Z,24.50
2022-11-14T17:06:10.277Z,24.70
2022-11-14T17:08:57.463Z,23.80
2022-11-14T17:11:44.483Z,21.40
2022-11-14T17:14:30.319Z,22.10
2022-11-14T17:17:15.515Z,24.80
2022-11-14T17:20:01.397Z,20.90
2022-11-14T17:22:46.655Z,23.40
2022-11-14T17:25:32.071Z,24.70
2022-11-14T17:28:17.319Z,24.00
2022-11-14T17:31:10.073Z,23.90
2022-11-14T17:33:57.365Z,27.20
2022-11-14T17:36:42.703Z,20.80
2022-11-14T17:39:27.953Z,22.50
2022-11-14T17:42:13.711Z,26.60
2022-11-14T17:45:00.596Z,24.90
2022-11-14T17:47:46.826Z,27.40
2022-11-14T17:50:37.397Z,25.70
2022-11-14T17:53:23.547Z,23.70
2022-11-14T17:56:14.431Z,26.90
2022-11-14T17:59:00.145Z,24.80
2022-11-14T18:01:45.990Z,24.50
2022-11-14T18:04:31.288Z,25.00
2022-11-14T18:07:17.092Z,23.30
2022-11-14T18:10:02.711Z,27.80
2022-11-14T18:12:53.476Z,28.30
2022-11-14T18:15:39.568Z,25.10
2022-11-14T18:18:25.040Z,24.50
2022-11-14T18:21:14.523Z,28.70
2022-11-14T18:24:00.143Z,21.50
2022-11-14T18:26:45.938Z,23.80
2022-11-14T18:29:31.235Z,24.00
2022-11-14T18:32:22.022Z,26.00
2022-11-14T18:35:08.783Z,24.00
2022-11-14T18:37:57.238Z,24.40
2022-11-14T18:40:43.679Z,25.20
2022-11-14T18:43:31.733Z,20.70
2022-11-14T18:46:19.870Z,23.40
2022-11-14T18:49:05.660Z,21.80
2022-11-14T18:51:50.798Z,22.30
2022-11-14T18:54:37.741Z,21.90
2022-11-14T18:57:23.030Z,21.70
2022-11-14T19:00:08.756Z,21.00
2022-11-14T19:02:54.280Z,21.80
2022-11-14T19:05:40.122Z,22.10
2022-11-14T19:08:25.538Z,26.20
2022-11-14T19:11:33.044Z,19.70
2022-11-14T19:14:19.599Z,20.10
2022-11-14T19:17:06.504Z,21.10
2022-11-14T19:19:54.623Z,21.10
2022-11-14T19:22:40.397Z,19.70
2022-11-14T19:25:25.806Z,20.40
2022-11-14T19:28:10.896Z,22.40
2022-11-14T19:31:05.319Z,20.60
2022-11-14T19:33:50.556Z,24.80
2022-11-14T19:36:58.731Z,19.90
2022-11-14T19:39:41.540Z,19.30
2022-11-14T19:42:26.651Z,19.40
2022-11-14T19:45:12.156Z,19.50
2022-11-14T19:47:57.541Z,17.80
2022-11-14T19:50:48.107Z,22.00
2022-11-14T19:53:34.795Z,19.10
2022-11-14T19:56:22.007Z,21.20
2022-11-14T19:59:13.786Z,17.00
2022-11-14T20:02:00.638Z,17.20
2022-11-14T20:04:46.394Z,17.00
2022-11-14T20:07:34.776Z,18.70
2022-11-14T20:10:20.470Z,20.50
2022-11-14T20:13:06.502Z,19.30
2022-11-14T20:15:52.048Z,20.10
2022-11-14T20:18:38.203Z,16.00
2022-11-14T20:21:25.047Z,20.80
2022-11-14T20:24:13.646Z,18.80
2022-11-14T20:26:59.387Z,22.60
2022-11-14T20:29:45.357Z,21.90
2022-11-14T20:32:30.904Z,19.70
2022-11-14T20:35:16.480Z,19.50
2022-11-14T20:38:04.531Z,23.40
2022-11-14T20:40:57.650Z,16.90
2022-11-14T20:43:44.182Z,21.90
2022-11-14T20:49:34.758Z,22.30
2022-11-14T20:52:21.404Z,23.20
2022-11-14T20:55:11.636Z,21.00
2022-11-14T20:57:57.280Z,21.40
2022-11-14T21:00:42.394Z,24.40
2022-11-14T21:03:28.467Z,17.10
2022-11-14T21:06:15.579Z,20.10
2022-11-14T21:09:01.336Z,22.60
2022-11-14T21:11:46.376Z,20.50
2022-11-14T21:14:32.167Z,18.40
2022-11-14T21:17:18.625Z,24.00
2022-11-14T21:20:07.418Z,21.40
2022-11-14T21:22:52.802Z,20.20
2022-11-14T21:25:38.037Z,21.90
2022-11-14T21:28:23.513Z,16.00
2022-11-14T21:31:33.622Z,23.80
2022-11-14T21:34:18.893Z,19.10
2022-11-14T21:37:06.310Z,22.30
2022-11-14T21:39:51.899Z,21.50
2022-11-14T21:42:39.239Z,22.60
2022-11-14T21:45:24.835Z,22.60
2022-11-14T21:48:09.960Z,21.70
2022-11-14T21:51:02.743Z,25.30
2022-11-14T21:53:53.361Z,19.40
2022-11-14T21:56:39.996Z,22.50
2022-11-14T21:59:28.491Z,25.10
2022-11-14T22:02:32.228Z,21.90
2022-11-14T22:05:17.614Z,21.90
2022-11-14T22:08:03.117Z,20.50
2022-11-14T22:10:48.632Z,22.60
2022-11-14T22:13:34.534Z,21.50
2022-11-14T22:16:20.700Z,20.60
2022-11-14T22:19:06.716Z,23.80
2022-11-14T22:21:52.540Z,23.10
2022-11-14T22:24:38.673Z,22.30
2022-11-14T22:27:24.140Z,22.70
2022-11-14T22:30:11.129Z,23.90
2022-11-14T22:32:59.595Z,20.40
2022-11-14T22:35:45.412Z,24.80
2022-11-14T22:38:32.007Z,22.30
2022-11-14T22:41:19.713Z,24.90
2022-11-14T22:44:05.335Z,29.50
2022-11-14T22:46:50.620Z,25.10
2022-11-14T22:49:42.430Z,26.70
2022-11-14T22:52:29.342Z,26.70
2022-11-14T22:55:18.064Z,22.50
2022-11-14T22:58:03.865Z,22.50
2022-11-14T23:00:49.886Z,23.40
2022-11-14T23:03:35.879Z,21.90
2022-11-14T23:06:22.529Z,27.20
2022-11-14T23:09:08.133Z,28.30
2022-11-14T23:11:53.581Z,29.30
2022-11-14T23:14:39.682Z,31.10
2022-11-14T23:17:24.745Z,29.30
2022-11-14T23:20:16.078Z,33.30
2022-11-14T23:23:01.973Z,31.20
2022-11-14T23:25:47.455Z,34.40
2022-11-14T23:28:32.812Z,30.70
2022-11-14T23:31:18.571Z,35.00
2022-11-14T23:34:03.880Z,37.10
2022-11-14T23:36:49.371Z,34.30
2022-11-14T23:39:34.660Z,34.10
2022-11-14T23:42:20.307Z,35.60
2022-11-14T23:45:06.748Z,38.60
2022-11-14T23:47:52.533Z,33.50
2022-11-14T23:50:38.471Z,34.00
2022-11-14T23:53:24.229Z,33.20
2022-11-14T23:56:12.603Z,36.40
2022-11-14T23:58:58.087Z,31.20
